Time;durP1;ratioP1;P1;durP2;ratioP2;P2;SDS_P1;SDS_P2;PMS_P1;PMS_P2;Temp;Humidity;BMP_temperature;BMP_pressure;BME280_temperature;BME280_humidity;BME280_pressure;Samples;Min_cycle;Max_cycle;Signal;HPM_P1;HPM_P2
2024/04/08 00:00:17;;;;;;;4.22;1.88;;;;;;;24.00;39.06;96664.84;5043544;28;20044;-77
2024/04/08 00:02:42;;;;;;;2.92;1.60;;;;;;;23.91;38.83;96659.72;4998436;28;20033;-77
2024/04/08 00:05:08;;;;;;;6.68;2.60;;;;;;;23.83;38.32;96656.09;5007760;28;20552;-77
2024/04/08 00:07:33;;;;;;;3.72;1.67;;;;;;;24.03;37.29;96664.16;5031400;28;20120;-76
2024/04/08 00:09:58;;;;;;;8.40;2.60;;;;;;;24.25;36.80;96654.78;5015857;28;20033;-77
2024/04/08 00:12:24;;;;;;;4.55;1.48;;;;;;;24.24;37.10;96645.25;5029085;28;20501;-77
2024/04/08 00:14:49;;;;;;;6.22;1.50;;;;;;;24.16;36.30;96654.19;5014691;28;20120;-77
2024/04/08 00:17:15;;;;;;;6.97;1.88;;;;;;;24.52;35.41;96655.72;5037766;28;20017;-76
2024/04/08 00:19:41;;;;;;;4.85;1.20;;;;;;;24.54;33.98;96642.06;5016603;28;20051;-77
2024/04/08 00:22:06;;;;;;;4.82;1.50;;;;;;;24.78;32.95;96649.06;5032312;28;20029;-75
2024/04/08 00:24:32;;;;;;;3.42;1.48;;;;;;;24.82;33.25;96653.34;5028455;28;20086;-76
2024/04/08 00:26:57;;;;;;;5.85;1.15;;;;;;;24.98;33.20;96639.94;4994486;28;20124;-76
2024/04/08 00:29:23;;;;;;;6.03;1.30;;;;;;;24.99;32.19;96646.81;5013512;28;20716;-76
2024/04/08 00:31:48;;;;;;;6.40;1.40;;;;;;;24.93;32.72;96647.44;5019998;28;20036;-76
2024/04/08 00:34:13;;;;;;;3.35;1.10;;;;;;;24.93;31.60;96642.13;5014662;28;20028;-80
2024/04/08 00:36:41;;;;;;;7.03;1.52;;;;;;;24.97;31.59;96646.41;5000755;28;20033;-80
2024/04/08 00:39:07;;;;;;;5.25;1.92;;;;;;;24.74;31.73;96648.97;5012845;28;20481;-81
2024/04/08 00:41:32;;;;;;;7.72;1.55;;;;;;;24.85;31.46;96655.31;5026201;28;20164;-80
2024/04/08 00:43:59;;;;;;;4.85;1.30;;;;;;;24.91;31.16;96644.38;5022333;28;20057;-81
2024/04/08 00:46:24;;;;;;;4.28;1.33;;;;;;;24.90;30.81;96645.47;5027571;28;20126;-78
2024/04/08 00:48:51;;;;;;;3.38;1.00;;;;;;;24.57;30.58;96647.50;5008192;28;20040;-79
2024/04/08 00:51:18;;;;;;;6.68;1.63;;;;;;;24.77;31.07;96640.31;4998317;28;20029;-81
2024/04/08 00:53:43;;;;;;;3.92;1.17;;;;;;;24.86;30.19;96638.22;5014555;28;20344;-79
2024/04/08 00:56:09;;;;;;;4.07;1.25;;;;;;;25.15;30.43;96641.41;4997362;28;20033;-79
2024/04/08 00:58:38;;;;;;;3.05;1.10;;;;;;;25.19;29.99;96634.25;4993929;28;20113;-80
2024/04/08 01:01:05;;;;;;;4.75;0.98;;;;;;;25.06;30.28;96640.84;4995879;28;20041;-81
2024/04/08 01:03:31;;;;;;;6.20;1.08;;;;;;;25.17;30.03;96647.16;5012996;28;20086;-80
2024/04/08 01:05:57;;;;;;;4.03;1.05;;;;;;;25.15;29.17;96654.72;5015485;28;20455;-80
2024/04/08 01:08:23;;;;;;;4.28;1.30;;;;;;;25.14;30.62;96655.06;5013473;28;20033;-80
2024/04/08 01:10:48;;;;;;;2.22;0.80;;;;;;;25.29;30.25;96648.16;5016142;28;20025;-80
2024/04/08 01:13:14;;;;;;;3.17;1.40;;;;;;;25.06;29.94;96654.19;4992512;28;20091;-80
2024/04/08 01:15:40;;;;;;;3.40;1.60;;;;;;;25.08;29.87;96641.28;5016277;28;20489;-80
2024/04/08 01:18:05;;;;;;;2.13;1.00;;;;;;;25.38;29.82;96638.81;5019709;28;20357;-81
2024/04/08 01:20:31;;;;;;;3.85;1.17;;;;;;;25.02;30.26;96634.72;4990707;28;20025;-80
2024/04/08 01:22:56;;;;;;;6.63;1.02;;;;;;;25.04;30.32;96648.44;4999194;28;20033;-80
2024/04/08 01:25:21;;;;;;;3.88;1.58;;;;;;;25.27;29.83;96645.06;4995114;28;20117;-80
2024/04/08 01:27:47;;;;;;;3.30;1.05;;;;;;;25.37;29.47;96647.16;4985627;28;20021;-80
2024/04/08 01:30:12;;;;;;;4.70;1.10;;;;;;;25.37;30.21;96639.16;5030087;28;20509;-80
2024/04/08 01:32:38;;;;;;;5.32;1.25;;;;;;;25.21;30.87;96621.34;4998692;28;20496;-79
2024/04/08 01:35:03;;;;;;;5.97;1.40;;;;;;;25.22;30.60;96654.88;4999615;28;20040;-79
2024/04/08 01:37:29;;;;;;;2.08;0.90;;;;;;;25.24;31.01;96643.84;5001109;28;20136;-79
2024/04/08 01:39:54;;;;;;;4.65;1.33;;;;;;;25.15;31.32;96654.72;4996614;28;20900;-80
2024/04/08 01:42:20;;;;;;;3.17;1.20;;;;;;;24.97;32.02;96632.31;5015535;28;20060;-80
2024/04/08 01:44:45;;;;;;;3.33;1.10;;;;;;;24.89;32.02;96625.31;5000222;28;20026;-77
2024/04/08 01:47:11;;;;;;;1.75;0.95;;;;;;;24.94;31.86;96623.13;5014652;28;20443;-77
2024/04/08 01:49:36;;;;;;;3.40;1.08;;;;;;;24.92;31.50;96625.38;5013129;28;20052;-77
2024/04/08 01:52:02;;;;;;;3.17;1.00;;;;;;;24.94;32.01;96622.38;5015197;28;20067;-78
2024/04/08 01:54:27;;;;;;;2.72;1.75;;;;;;;24.87;32.04;96623.00;4982544;28;20041;-77
2024/04/08 01:56:52;;;;;;;3.53;0.90;;;;;;;24.83;31.67;96614.16;5009450;28;20638;-78
2024/04/08 01:59:18;;;;;;;2.45;1.00;;;;;;;24.68;32.30;96613.91;5015677;28;20043;-77
2024/04/08 02:01:43;;;;;;;3.67;0.90;;;;;;;24.44;32.65;96606.16;5025108;28;20025;-76
2024/04/08 02:04:09;;;;;;;3.22;1.38;;;;;;;24.74;30.31;96606.38;4996171;28;20044;-77
2024/04/08 02:06:35;;;;;;;5.05;1.40;;;;;;;24.82;30.00;96615.31;4983404;28;20025;-77
2024/04/08 02:09:00;;;;;;;2.13;1.08;;;;;;;24.80;30.02;96610.31;5013151;28;20106;-77
2024/04/08 02:11:25;;;;;;;3.38;1.33;;;;;;;24.77;30.17;96624.34;5030115;28;20036;-77
2024/04/08 02:13:51;;;;;;;2.55;1.10;;;;;;;24.78;30.68;96623.22;5013205;28;20037;-78
2024/04/08 02:16:16;;;;;;;4.72;1.17;;;;;;;24.80;31.06;96620.22;5013664;28;20079;-77
2024/04/08 02:18:41;;;;;;;6.97;1.25;;;;;;;24.80;30.50;96638.84;5012707;28;20037;-76
2024/04/08 02:21:11;;;;;;;5.43;1.90;;;;;;;24.86;30.49;96637.44;4998535;28;20048;-77
2024/04/08 02:23:36;;;;;;;3.45;1.20;;;;;;;24.80;30.06;96623.63;5030952;28;20028;-78
2024/04/08 02:26:02;;;;;;;3.67;1.50;;;;;;;24.89;29.91;96643.97;5011812;28;20033;-77
2024/04/08 02:28:28;;;;;;;3.78;1.55;;;;;;;24.97;29.62;96633.09;5004410;28;20029;-77
2024/04/08 02:30:53;;;;;;;3.38;1.10;;;;;;;24.95;30.04;96631.88;4994556;28;20088;-77
2024/04/08 02:33:19;;;;;;;1.70;0.95;;;;;;;24.91;30.41;96621.16;5021410;28;20025;-77
2024/04/08 02:35:44;;;;;;;6.90;1.58;;;;;;;24.76;29.14;96614.03;5011222;28;20040;-76
2024/04/08 02:38:10;;;;;;;3.45;1.33;;;;;;;24.96;29.78;96638.75;5030871;28;20532;-78
2024/04/08 02:40:36;;;;;;;4.82;1.42;;;;;;;24.92;29.90;96637.94;5008045;28;20142;-77
2024/04/08 02:43:03;;;;;;;5.68;1.77;;;;;;;25.02;29.63;96646.13;5047619;28;20309;-77
2024/04/08 02:45:29;;;;;;;3.10;1.13;;;;;;;24.82;30.14;96642.69;5015238;28;20128;-77
2024/04/08 02:47:57;;;;;;;3.47;1.08;;;;;;;24.88;30.41;96637.09;4993801;28;20128;-76
2024/04/08 02:50:23;;;;;;;4.82;1.02;;;;;;;24.83;30.28;96644.25;5009790;28;20032;-77
2024/04/08 02:52:48;;;;;;;3.38;1.10;;;;;;;24.77;30.53;96640.31;4991115;28;20037;-77
2024/04/08 02:55:14;;;;;;;2.22;1.20;;;;;;;24.68;30.49;96621.13;5007227;28;20087;-80
2024/04/08 02:57:39;;;;;;;4.93;1.35;;;;;;;24.82;30.11;96641.94;5005707;28;20397;-80
2024/04/08 03:00:05;;;;;;;4.50;1.13;;;;;;;24.75;30.30;96641.78;5014937;28;20095;-80
2024/04/08 03:02:31;;;;;;;5.30;1.05;;;;;;;24.73;30.10;96650.13;5004035;28;20535;-80
2024/04/08 03:04:56;;;;;;;3.78;1.00;;;;;;;24.64;29.50;96636.22;5017470;28;20037;-80
2024/04/08 03:07:21;;;;;;;4.30;1.70;;;;;;;24.67;30.02;96641.63;5027525;28;20091;-80
2024/04/08 03:09:51;;;;;;;3.97;1.10;;;;;;;24.82;29.38;96642.69;5002741;28;20051;-80
2024/04/08 03:12:16;;;;;;;5.80;1.40;;;;;;;24.69;29.52;96643.94;5015056;28;20033;-80
2024/04/08 03:14:42;;;;;;;5.47;1.15;;;;;;;24.75;29.76;96634.56;5025082;28;20029;-79
2024/04/08 03:17:07;;;;;;;3.55;1.48;;;;;;;24.79;29.99;96632.72;5013804;28;20028;-79
2024/04/08 03:19:32;;;;;;;3.63;1.20;;;;;;;24.78;29.49;96625.88;5010680;28;20128;-80
2024/04/08 03:21:58;;;;;;;4.65;1.45;;;;;;;24.74;30.39;96637.56;5026723;28;20083;-80
2024/04/08 03:24:23;;;;;;;3.78;1.05;;;;;;;24.60;30.10;96622.09;5020021;28;20037;-79
2024/04/08 03:26:49;;;;;;;4.50;1.25;;;;;;;24.57;29.40;96631.53;5009028;28;20056;-80
2024/04/08 03:29:14;;;;;;;4.65;1.20;;;;;;;24.23;30.97;96627.75;5007831;28;20496;-80
2024/04/08 03:31:40;;;;;;;2.92;1.08;;;;;;;24.36;30.31;96631.81;4993055;28;20025;-80
2024/04/08 03:34:05;;;;;;;3.42;0.95;;;;;;;24.33;30.47;96629.84;5011121;28;20029;-80
2024/04/08 03:36:31;;;;;;;1.92;1.13;;;;;;;24.40;30.34;96630.03;5045942;28;20330;-80
2024/04/08 03:38:56;;;;;;;4.63;1.02;;;;;;;24.23;31.32;96627.75;5018997;28;20114;-80
2024/04/08 03:41:22;;;;;;;2.17;1.15;;;;;;;24.14;30.78;96629.81;5026263;28;20370;-81
2024/04/08 03:43:47;;;;;;;4.82;1.40;;;;;;;24.33;30.17;96631.75;5014266;28;20041;-80
2024/04/08 03:46:12;;;;;;;4.75;1.50;;;;;;;24.33;30.61;96631.75;5043636;28;20037;-79
2024/04/08 03:48:38;;;;;;;4.68;1.20;;;;;;;24.09;30.68;96629.00;4995456;28;20033;-80
2024/04/08 03:51:10;;;;;;;3.38;1.10;;;;;;;24.17;30.87;96629.91;5013556;28;20040;-80
2024/04/08 03:53:36;;;;;;;6.03;1.30;;;;;;;24.21;30.63;96617.44;5001018;28;20644;-80
2024/04/08 03:56:09;;;;;;;4.82;1.10;;;;;;;24.37;30.20;96624.59;4989000;28;20036;-80
2024/04/08 03:58:37;;;;;;;3.75;1.05;;;;;;;24.40;30.25;96631.91;4996922;28;20040;-80
2024/04/08 04:01:03;;;;;;;3.70;1.40;;;;;;;24.12;30.30;96628.28;5010403;28;20083;-80
2024/04/08 04:03:28;;;;;;;2.97;1.25;;;;;;;24.05;30.63;96628.13;5000409;28;20017;-79
2024/04/08 04:05:54;;;;;;;3.38;1.00;;;;;;;24.07;30.55;96630.44;5009716;28;20036;-77
2024/04/08 04:08:19;;;;;;;2.83;1.25;;;;;;;23.98;30.72;96627.97;5011814;28;20025;-77
2024/04/08 04:10:45;;;;;;;3.75;0.85;;;;;;;23.95;30.68;96623.31;5028421;28;20068;-77
2024/04/08 04:13:10;;;;;;;4.85;1.33;;;;;;;23.87;30.24;96616.28;5024337;28;20113;-77
2024/04/08 04:15:36;;;;;;;2.83;1.20;;;;;;;23.89;30.92;96614.09;5022758;28;20696;-77
2024/04/08 04:18:01;;;;;;;3.15;1.30;;;;;;;23.89;31.13;96624.72;5014282;28;20041;-77
2024/04/08 04:20:41;;;;;;;5.38;1.50;;;;;;;23.81;31.07;96617.66;5013006;28;20481;-77
2024/04/08 04:23:09;;;;;;;1.63;1.20;;;;;;;23.69;31.51;96616.63;5013087;28;20546;-78
2024/04/08 04:25:35;;;;;;;4.03;1.27;;;;;;;23.61;31.25;96614.91;5025825;28;20456;-78
2024/04/08 04:28:01;;;;;;;4.95;1.05;;;;;;;23.51;31.34;96608.25;4983423;28;20032;-78
2024/04/08 04:30:27;;;;;;;4.53;1.25;;;;;;;23.43;31.13;96619.81;4994585;28;20490;-80
2024/04/08 04:32:53;;;;;;;4.30;1.33;;;;;;;23.61;30.99;96612.25;5011849;28;20547;-80
2024/04/08 04:35:18;;;;;;;3.03;1.20;;;;;;;23.44;31.80;96612.59;5013203;28;20392;-80
2024/04/08 04:37:44;;;;;;;2.45;1.00;;;;;;;23.21;31.64;96604.44;5017240;28;20033;-79
2024/04/08 04:40:09;;;;;;;2.83;1.25;;;;;;;23.32;31.87;96614.22;5032109;28;20033;-80
2024/04/08 04:42:35;;;;;;;4.60;1.77;;;;;;;23.28;31.95;96615.25;5013800;28;20025;-80
2024/04/08 04:45:01;;;;;;;3.28;1.08;;;;;;;23.22;31.78;96609.41;5032442;28;20045;-81
2024/04/08 04:47:26;;;;;;;3.00;1.00;;;;;;;23.19;32.00;96604.78;4997145;28;20025;-80
2024/04/08 04:49:52;;;;;;;8.43;1.20;;;;;;;23.16;31.93;96611.53;5030688;28;20029;-80
2024/04/08 04:52:17;;;;;;;3.15;1.30;;;;;;;23.12;32.25;96609.91;5010224;28;20042;-79
2024/04/08 04:54:43;;;;;;;2.80;1.00;;;;;;;23.09;32.54;96621.19;5015320;28;20063;-79
2024/04/08 04:57:08;;;;;;;3.40;1.20;;;;;;;23.07;32.39;96618.13;5005437;28;20052;-80
2024/04/08 04:59:33;;;;;;;2.80;1.00;;;;;;;22.99;32.21;96620.53;5012653;28;20049;-80
2024/04/08 05:01:59;;;;;;;2.72;1.20;;;;;;;23.04;32.54;96613.44;5004309;28;20035;-80
2024/04/08 05:04:24;;;;;;;5.00;1.83;;;;;;;22.95;32.37;96618.91;4997625;28;20044;-79
2024/04/08 05:06:50;;;;;;;3.30;1.40;;;;;;;22.97;32.33;96619.34;5016404;28;20055;-80
2024/04/08 05:09:15;;;;;;;3.25;0.88;;;;;;;22.94;33.07;96620.00;5014899;28;20033;-80
2024/04/08 05:11:41;;;;;;;3.47;1.10;;;;;;;22.92;32.15;96616.94;5013743;28;20090;-80
2024/04/08 05:14:07;;;;;;;4.57;1.10;;;;;;;23.14;32.52;96618.31;4999583;28;20590;-79
2024/04/08 05:16:33;;;;;;;2.90;1.05;;;;;;;23.03;32.82;96619.88;5011953;28;20025;-80
2024/04/08 05:18:58;;;;;;;3.92;1.25;;;;;;;22.98;32.96;96624.31;5030829;28;20032;-80
2024/04/08 05:21:23;;;;;;;2.15;1.02;;;;;;;23.00;32.59;96622.09;4997177;28;20021;-80
2024/04/08 05:23:49;;;;;;;5.55;1.30;;;;;;;23.23;32.14;96626.88;5020618;28;20387;-80
2024/04/08 05:26:15;;;;;;;3.75;1.08;;;;;;;23.33;32.30;96626.38;4999236;28;20489;-79
2024/04/08 05:28:41;;;;;;;3.50;1.85;;;;;;;23.28;32.17;96625.88;4993354;28;20117;-80
2024/04/08 05:31:06;;;;;;;4.90;1.08;;;;;;;23.29;32.96;96620.22;4999154;28;20068;-80
2024/04/08 05:33:31;;;;;;;3.67;1.20;;;;;;;23.28;32.71;96634.59;5009512;28;20026;-80
2024/04/08 05:35:57;;;;;;;4.00;1.55;;;;;;;23.35;32.74;96640.09;4995747;28;20059;-80
2024/04/08 05:38:23;;;;;;;4.20;1.45;;;;;;;23.29;32.59;96641.47;5031573;28;20037;-81
2024/04/08 05:40:49;;;;;;;4.63;1.50;;;;;;;23.35;32.51;96632.13;5023875;28;20029;-80
2024/04/08 05:43:15;;;;;;;3.28;1.10;;;;;;;23.45;32.82;96638.06;4997828;28;20028;-81
2024/04/08 05:45:40;;;;;;;4.00;1.20;;;;;;;23.48;32.77;96638.16;5029272;28;20033;-81
2024/04/08 05:48:06;;;;;;;3.53;1.20;;;;;;;23.49;32.46;96644.22;5026241;28;20481;-80
2024/04/08 05:50:32;;;;;;;5.50;1.40;;;;;;;23.55;32.80;96646.28;5015213;28;20039;-80
2024/04/08 05:52:58;;;;;;;5.65;1.67;;;;;;;23.61;32.81;96644.13;5027159;28;20048;-80
2024/04/08 05:55:24;;;;;;;3.78;1.88;;;;;;;23.80;32.63;96645.34;5018213;28;20080;-80
2024/04/08 05:57:49;;;;;;;6.88;1.42;;;;;;;23.75;32.62;96636.53;5009344;28;20033;-80
2024/04/08 06:00:16;;;;;;;4.78;1.40;;;;;;;23.86;32.41;96649.34;5001805;28;20035;-80
2024/04/08 06:02:42;;;;;;;4.72;1.50;;;;;;;23.87;32.13;96645.53;5024917;28;20037;-81
2024/04/08 06:05:08;;;;;;;4.57;1.60;;;;;;;24.11;32.25;96648.03;5014859;28;20043;-80
2024/04/08 06:07:34;;;;;;;3.22;1.40;;;;;;;24.11;32.71;96647.22;5012973;28;20124;-80
2024/04/08 06:09:59;;;;;;;6.13;2.15;;;;;;;24.09;32.85;96638.84;5011221;28;20132;-81
2024/04/08 06:12:25;;;;;;;5.22;1.40;;;;;;;24.30;32.23;96638.56;5029181;28;20034;-80
2024/04/08 06:14:51;;;;;;;3.20;0.90;;;;;;;24.39;32.65;96638.34;5040587;28;20034;-80
2024/04/08 06:17:16;;;;;;;3.78;1.30;;;;;;;24.41;32.29;96636.13;5020881;28;20036;-80
2024/04/08 06:19:44;;;;;;;3.60;1.50;;;;;;;24.55;32.37;96633.00;5031817;28;20075;-81
2024/04/08 06:22:12;;;;;;;3.67;0.95;;;;;;;24.68;31.54;96640.50;4996779;28;20029;-80
2024/04/08 06:24:37;;;;;;;4.40;1.70;;;;;;;24.73;31.39;96642.13;4989295;28;20041;-81
2024/04/08 06:27:03;;;;;;;5.40;1.60;;;;;;;24.82;31.70;96640.03;5013446;28;20038;-78
2024/04/08 06:29:28;;;;;;;5.07;1.55;;;;;;;24.80;32.19;96647.59;5007272;28;20064;-78
2024/04/08 06:31:53;;;;;;;5.50;1.05;;;;;;;24.91;32.05;96649.69;5010910;28;20083;-78
2024/04/08 06:34:19;;;;;;;2.88;1.13;;;;;;;24.92;31.28;96651.25;5011306;28;20124;-79
2024/04/08 06:36:44;;;;;;;4.10;1.40;;;;;;;24.73;31.76;96644.81;5011867;28;20029;-78
2024/04/08 06:39:10;;;;;;;3.50;1.42;;;;;;;25.01;32.70;96652.56;5026772;28;20049;-78
2024/04/08 06:41:36;;;;;;;5.25;1.38;;;;;;;25.20;31.75;96649.09;5004678;28;20354;-77
2024/04/08 06:44:03;;;;;;;3.05;1.48;;;;;;;25.18;32.05;96654.03;4995717;28;20048;-78
2024/04/08 06:46:28;;;;;;;2.92;0.88;;;;;;;25.42;30.89;96646.88;5044968;28;20697;-77
2024/04/08 06:48:53;;;;;;;7.47;1.90;;;;;;;25.51;29.03;96638.63;5013226;28;20028;-76
2024/04/08 06:51:19;;;;;;;5.40;1.35;;;;;;;25.79;30.05;96643.69;4995800;28;20068;-78
2024/04/08 06:53:44;;;;;;;5.22;1.40;;;;;;;25.83;30.17;96641.81;5010291;28;20033;-78
2024/04/08 06:56:10;;;;;;;4.95;1.75;;;;;;;25.98;30.42;96640.94;5002443;28;20474;-78
2024/04/08 06:58:35;;;;;;;6.25;1.38;;;;;;;25.95;30.71;96631.00;5002782;28;20036;-78
2024/04/08 07:01:01;;;;;;;5.53;1.42;;;;;;;26.10;31.12;96644.56;5027494;28;20033;-78
2024/04/08 07:03:26;;;;;;;4.68;1.40;;;;;;;26.12;29.79;96639.63;5014308;28;20066;-78
2024/04/08 07:05:52;;;;;;;4.80;1.35;;;;;;;26.28;29.96;96637.56;5012602;28;20416;-78
2024/04/08 07:08:17;;;;;;;6.10;1.67;;;;;;;26.44;29.91;96640.06;5031182;28;20063;-78
2024/04/08 07:10:46;;;;;;;4.15;1.50;;;;;;;26.39;29.53;96634.25;5003780;28;20493;-78
2024/04/08 07:13:12;;;;;;;4.40;1.40;;;;;;;26.43;30.26;96640.44;5010772;28;20036;-78
2024/04/08 07:15:37;;;;;;;5.53;1.73;;;;;;;26.56;31.01;96628.38;4995396;28;20120;-78
2024/04/08 07:18:03;;;;;;;3.70;1.30;;;;;;;26.77;29.98;96629.78;5009663;28;20116;-78
2024/04/08 07:20:30;;;;;;;8.63;1.50;;;;;;;26.65;29.79;96623.56;4995254;28;20037;-78
2024/04/08 07:22:55;;;;;;;7.50;2.00;;;;;;;26.89;28.66;96626.91;5015674;28;20026;-77
2024/04/08 07:25:21;;;;;;;4.57;1.23;;;;;;;26.87;28.77;96629.16;5011337;28;20485;-78
2024/04/08 07:27:47;;;;;;;4.25;1.40;;;;;;;27.12;29.53;96623.31;5025597;28;20075;-77
2024/04/08 07:30:12;;;;;;;5.97;1.90;;;;;;;27.22;28.73;96620.75;5012920;28;20057;-78
2024/04/08 07:32:38;;;;;;;3.92;1.30;;;;;;;27.38;29.18;96615.19;5012483;28;20242;-78
2024/04/08 07:35:04;;;;;;;4.90;1.70;;;;;;;27.55;29.53;96615.72;5016329;28;20037;-78
2024/04/08 07:37:30;;;;;;;3.85;1.52;;;;;;;27.57;28.02;96611.56;5039477;28;20775;-81
2024/04/08 07:39:55;;;;;;;4.18;1.50;;;;;;;27.64;28.90;96605.47;5031787;28;20116;-80
2024/04/08 07:42:21;;;;;;;5.43;2.15;;;;;;;27.65;27.99;96613.13;5014271;28;20036;-80
2024/04/08 07:44:46;;;;;;;4.05;1.40;;;;;;;27.59;27.77;96605.81;5010899;28;20072;-80
2024/04/08 07:47:11;;;;;;;6.80;1.98;;;;;;;27.93;29.31;96605.72;4981858;28;20108;-80
2024/04/08 07:49:37;;;;;;;4.35;1.60;;;;;;;28.21;28.29;96605.91;5023041;28;20029;-80
2024/04/08 07:52:02;;;;;;;6.60;2.17;;;;;;;28.00;28.83;96595.84;5013727;28;20029;-81
2024/04/08 07:54:28;;;;;;;3.53;1.40;;;;;;;28.32;28.04;96587.19;5010310;28;20033;-80
2024/04/08 07:56:54;;;;;;;7.72;2.05;;;;;;;28.46;28.61;96594.53;5009610;28;20032;-81
2024/04/08 07:59:19;;;;;;;6.82;1.45;;;;;;;28.37;28.54;96597.56;5019383;28;20067;-80
2024/04/08 08:01:45;;;;;;;8.18;2.13;;;;;;;28.76;27.11;96602.34;4995226;28;20507;-80
2024/04/08 08:04:11;;;;;;;5.10;2.53;;;;;;;28.85;27.27;96593.94;5012404;28;20075;-80
2024/04/08 08:06:37;;;;;;;6.82;2.20;;;;;;;29.04;26.99;96594.75;4995151;28;20039;-80
2024/04/08 08:09:03;;;;;;;5.47;2.15;;;;;;;29.12;26.81;96593.63;5030320;28;20067;-82
2024/04/08 08:11:28;;;;;;;6.15;2.30;;;;;;;29.13;28.21;96587.88;5017533;28;20132;-81
2024/04/08 08:13:53;;;;;;;9.02;1.70;;;;;;;29.12;26.44;96594.38;5014555;28;20091;-81
2024/04/08 08:16:19;;;;;;;4.95;1.60;;;;;;;29.03;26.57;96599.34;5014609;28;20116;-80
2024/04/08 08:18:45;;;;;;;8.52;1.73;;;;;;;29.27;26.68;96597.09;5029165;28;20123;-80
2024/04/08 08:21:11;;;;;;;4.40;1.80;;;;;;;29.25;26.22;96602.88;5045521;28;20040;-81
2024/04/08 08:23:36;;;;;;;5.47;1.75;;;;;;;29.54;25.89;96599.41;5041027;28;20025;-80
2024/04/08 08:26:02;;;;;;;6.80;1.70;;;;;;;29.66;25.66;96596.34;5034147;28;20032;-80
2024/04/08 08:28:27;;;;;;;7.03;2.50;;;;;;;29.91;25.55;96599.03;5017022;28;20094;-80
2024/04/08 08:30:52;;;;;;;4.38;2.00;;;;;;;29.92;25.42;96597.91;5034891;28;20504;-80
2024/04/08 08:33:20;;;;;;;6.05;2.00;;;;;;;30.09;25.96;96606.28;5017170;28;20460;-81
2024/04/08 08:35:46;;;;;;;5.90;2.03;;;;;;;30.18;25.84;96602.06;5014098;28;20137;-81
2024/04/08 08:38:14;;;;;;;10.43;2.60;;;;;;;30.36;25.16;96593.22;5020488;28;20172;-80
2024/04/08 08:40:43;;;;;;;5.70;2.03;;;;;;;30.27;25.93;96590.16;4981961;28;20052;-79
2024/04/08 08:43:10;;;;;;;7.47;1.83;;;;;;;30.09;25.35;96593.63;5014317;28;20021;-79
2024/04/08 08:45:41;;;;;;;8.20;2.60;;;;;;;30.10;25.23;96589.81;5030285;28;20030;-77
2024/04/08 08:48:07;;;;;;;7.85;2.25;;;;;;;30.31;25.34;96588.97;5012076;28;20029;-77
2024/04/08 08:50:33;;;;;;;7.57;2.05;;;;;;;30.38;24.84;96589.00;5023929;28;20029;-77
2024/04/08 08:52:58;;;;;;;5.75;1.88;;;;;;;30.56;25.20;96596.97;5033373;28;20495;-78
2024/04/08 08:55:25;;;;;;;5.88;2.15;;;;;;;30.59;24.63;96592.75;5015533;28;20032;-76
2024/04/08 08:57:53;;;;;;;7.68;2.15;;;;;;;30.75;24.16;96593.06;5017534;28;20070;-77
2024/04/08 09:00:19;;;;;;;7.18;1.80;;;;;;;30.77;24.37;96589.97;5014524;28;20041;-77
2024/04/08 09:02:45;;;;;;;8.52;2.08;;;;;;;30.86;24.13;96589.53;4990267;28;20481;-78
2024/04/08 09:05:10;;;;;;;6.30;2.17;;;;;;;30.99;24.72;96579.91;5011100;28;20045;-77
2024/04/08 09:07:36;;;;;;;5.95;1.75;;;;;;;31.11;24.04;96586.75;5014904;28;20025;-77
2024/04/08 09:10:01;;;;;;;5.82;2.00;;;;;;;31.10;25.74;96595.97;5013399;28;20374;-78
2024/04/08 09:12:27;;;;;;;6.07;2.05;;;;;;;31.20;24.55;96608.56;4997716;28;20053;-76
2024/04/08 09:14:53;;;;;;;6.93;1.90;;;;;;;30.96;23.31;96602.19;5000747;28;20030;-78
2024/04/08 09:17:19;;;;;;;6.07;2.03;;;;;;;31.15;24.63;96599.00;4988319;28;20134;-77
2024/04/08 09:19:45;;;;;;;7.85;1.60;;;;;;;31.09;24.30;96595.19;5009510;28;20033;-77
2024/04/08 09:22:11;;;;;;;7.82;2.97;;;;;;;31.28;23.62;96595.84;5007062;28;20456;-77
2024/04/08 09:24:37;;;;;;;9.15;2.22;;;;;;;31.58;23.78;96594.50;5017107;28;20086;-77
2024/04/08 09:27:02;;;;;;;5.82;2.17;;;;;;;31.58;22.80;96597.19;5015934;28;20025;-77
2024/04/08 09:29:28;;;;;;;6.05;2.53;;;;;;;31.36;23.39;96589.25;4988067;28;20500;-77
2024/04/08 09:31:53;;;;;;;8.25;1.98;;;;;;;31.04;23.80;96582.16;4998678;28;20033;-76
2024/04/08 09:34:19;;;;;;;7.47;1.98;;;;;;;30.69;23.48;96594.63;5030009;28;20503;-77
2024/04/08 09:36:45;;;;;;;7.05;2.17;;;;;;;30.60;23.44;96580.84;5003950;28;20036;-77
2024/04/08 09:39:12;;;;;;;7.32;2.60;;;;;;;30.78;24.23;96599.56;5020116;28;20021;-77
2024/04/08 09:41:38;;;;;;;5.93;1.98;;;;;;;30.35;25.60;96589.78;5022346;28;20400;-76
2024/04/08 09:44:09;;;;;;;6.53;1.88;;;;;;;30.38;24.18;96591.69;4999673;28;20048;-78
2024/04/08 09:46:35;;;;;;;5.10;2.15;;;;;;;30.39;25.00;96593.19;5033486;28;20115;-76
2024/04/08 09:49:03;;;;;;;5.70;2.10;;;;;;;30.41;24.03;96601.63;5020080;28;20025;-78
2024/04/08 09:51:29;;;;;;;6.13;2.00;;;;;;;30.47;24.52;96598.53;5013240;28;20489;-76
2024/04/08 09:53:55;;;;;;;7.13;2.85;;;;;;;30.72;24.07;96601.13;5012634;28;20034;-77
2024/04/08 09:56:21;;;;;;;8.45;2.00;;;;;;;31.10;24.93;96591.38;5007354;28;20519;-76
2024/04/08 09:59:11;;;;;;;8.27;1.90;;;;;;;31.36;23.87;96587.31;5029346;28;20144;-78
2024/04/08 10:01:37;;;;;;;6.15;1.70;;;;;;;31.39;23.77;96583.06;4986734;28;20037;-77
2024/04/08 10:04:12;;;;;;;6.72;1.88;;;;;;;31.50;23.67;96575.72;4995676;28;20078;-78
2024/04/08 10:06:37;;;;;;;;;;;;;;;31.63;22.69;96567.16;4980682;28;20037;-77
2024/04/08 10:09:02;;;;;;;7.07;2.67;;;;;;;31.59;23.29;96561.03;4996547;28;20243;-78
2024/04/08 10:11:28;;;;;;;8.75;2.03;;;;;;;31.77;21.76;96560.88;5015205;28;20033;-77
2024/04/08 10:13:54;;;;;;;7.03;2.30;;;;;;;31.79;22.61;96553.16;4999005;28;20029;-77
2024/04/08 10:16:19;;;;;;;9.73;1.90;;;;;;;32.17;22.40;96551.25;5031427;28;20035;-78
2024/04/08 10:18:51;;;;;;;7.72;2.40;;;;;;;32.29;21.27;96545.31;5003743;28;20102;-77
2024/04/08 10:21:25;;;;;;;5.40;2.20;;;;;;;32.39;21.95;96557.16;5004994;28;20037;-78
2024/04/08 10:23:54;;;;;;;6.60;1.95;;;;;;;32.32;22.17;96551.84;5012500;28;20112;-77
2024/04/08 10:26:25;;;;;;;6.85;1.98;;;;;;;32.66;20.46;96554.53;5012322;28;20381;-77
2024/04/08 10:28:51;;;;;;;6.40;2.30;;;;;;;32.51;20.24;96552.38;5002851;28;20488;-77
2024/04/08 10:31:19;;;;;;;5.80;2.05;;;;;;;32.37;20.35;96545.22;5028681;28;20040;-78
2024/04/08 10:33:45;;;;;;;8.40;2.42;;;;;;;32.46;20.60;96548.22;5012230;28;20042;-77
2024/04/08 10:36:10;;;;;;;4.28;1.65;;;;;;;32.48;21.37;96546.63;5030128;28;20040;-77
2024/04/08 10:38:36;;;;;;;7.55;2.53;;;;;;;32.78;22.51;96542.44;5027949;28;20025;-78
2024/04/08 10:41:06;;;;;;;6.68;2.00;;;;;;;33.16;19.54;96536.09;5023049;28;20037;-78
2024/04/08 10:43:32;;;;;;;8.57;2.15;;;;;;;33.19;20.98;96532.59;4984068;28;20025;-77
2024/04/08 10:45:58;;;;;;;3.67;1.80;;;;;;;33.25;19.79;96538.31;4996480;28;20683;-79
2024/04/08 10:48:23;;;;;;;8.98;2.20;;;;;;;32.82;19.08;96534.28;5025480;28;20127;-80
2024/04/08 10:50:49;;;;;;;4.40;2.00;;;;;;;32.55;21.49;96537.69;4995412;28;20366;-80
2024/04/08 10:53:14;;;;;;;3.35;1.80;;;;;;;32.58;20.07;96546.91;5028334;28;20044;-80
2024/04/08 10:55:40;;;;;;;5.70;1.95;;;;;;;32.54;19.73;96540.78;5000982;28;20429;-80
2024/04/08 10:58:05;;;;;;;5.35;1.70;;;;;;;32.72;20.64;96540.59;4997737;28;20033;-79
2024/04/08 11:00:31;;;;;;;5.63;1.35;;;;;;;32.74;20.06;96546.34;4996416;28;20046;-79
2024/04/08 11:02:56;;;;;;;5.30;1.60;;;;;;;32.74;19.33;96535.56;4996637;28;20025;-79
2024/04/08 11:05:24;;;;;;;5.10;1.50;;;;;;;32.70;19.14;96538.31;4998655;28;20043;-79
2024/04/08 11:07:50;;;;;;;7.70;2.08;;;;;;;32.27;18.84;96536.88;5030775;28;20068;-78
2024/04/08 11:10:19;;;;;;;7.03;1.85;;;;;;;32.53;18.67;96531.19;5017587;28;20072;-77
2024/04/08 11:12:45;;;;;;;5.32;1.52;;;;;;;33.09;18.39;96533.50;4999968;28;20032;-77
2024/04/08 11:15:12;;;;;;;8.27;2.03;;;;;;;33.39;18.61;96535.34;5014409;28;20399;-77
2024/04/08 11:17:38;;;;;;;4.95;1.80;;;;;;;33.48;17.16;96537.53;5002480;28;20041;-77
2024/04/08 11:20:06;;;;;;;7.30;2.00;;;;;;;33.45;17.33;96538.34;5000374;28;20044;-78
2024/04/08 11:22:32;;;;;;;4.28;1.45;;;;;;;34.00;17.76;96537.00;4998023;28;20121;-78
2024/04/08 11:24:59;;;;;;;5.57;2.08;;;;;;;34.07;18.06;96538.81;5011442;28;20505;-78
2024/04/08 11:27:25;;;;;;;5.35;2.70;;;;;;;34.33;16.86;96527.09;5022993;28;20057;-77